Time;durP1;ratioP1;P1;durP2;ratioP2;P2;SDS_P1;SDS_P2;PMS_P1;PMS_P2;Temp;Humidity;BMP_temperature;BMP_pressure;BME280_temperature;BME280_humidity;BME280_pressure;Samples;Min_cycle;Max_cycle;Signal;HPM_P1;HPM_P2
2022/02/01 03:47:58;;;;;;;19.05;12.45;;;4.70;99.90;;;;;;4763430;30;20055;-82
2022/02/01 03:50:47;;;;;;;20.35;13.68;;;4.60;99.90;;;;;;4720128;30;20400;-83
2022/02/01 03:53:18;;;;;;;22.60;12.82;;;4.60;99.90;;;;;;4749343;30;20028;-82
2022/02/01 03:55:44;;;;;;;27.88;15.65;;;4.60;99.90;;;;;;4769134;30;20121;-82
2022/02/01 03:58:10;;;;;;;25.80;15.32;;;4.60;99.90;;;;;;4749492;30;20039;-82
2022/02/01 04:03:40;;;;;;;20.48;12.63;;;4.60;99.90;;;;;;4738077;30;20078;-82
2022/02/01 04:06:06;;;;;;;21.13;12.53;;;4.60;99.90;;;;;;4734342;30;20047;-82
2022/02/01 04:08:32;;;;;;;23.83;14.18;;;4.50;99.90;;;;;;4745605;30;20055;-82
2022/02/01 04:10:58;;;;;;;24.38;13.52;;;4.50;99.90;;;;;;4731727;30;20094;-82
2022/02/01 04:13:23;;;;;;;26.38;13.55;;;4.50;99.90;;;;;;4743552;30;20036;-83
2022/02/01 04:15:49;;;;;;;28.20;15.18;;;4.50;99.90;;;;;;4736073;30;20059;-82
2022/02/01 04:18:15;;;;;;;32.33;17.67;;;4.50;99.90;;;;;;4748832;30;20028;-82
2022/02/01 04:20:41;;;;;;;38.55;19.63;;;4.50;99.90;;;;;;4734584;30;20044;-82
2022/02/01 04:23:07;;;;;;;37.13;18.98;;;4.50;99.90;;;;;;4723317;30;20077;-82
2022/02/01 04:25:33;;;;;;;45.22;22.13;;;4.50;99.90;;;;;;4747375;30;20044;-82
2022/02/01 04:27:58;;;;;;;35.95;18.35;;;4.50;99.90;;;;;;4726650;30;20074;-82
2022/02/01 04:30:29;;;;;;;53.58;27.58;;;4.40;99.90;;;;;;4751114;30;20056;-82
2022/02/01 04:33:19;;;;;;;56.88;25.63;;;4.40;99.90;;;;;;4757676;30;20048;-82
2022/02/01 04:35:45;;;;;;;59.80;27.58;;;4.40;99.90;;;;;;4734933;30;20032;-82
2022/02/01 04:38:11;;;;;;;51.53;26.48;;;4.40;99.90;;;;;;4736894;30;20046;-82
2022/02/01 04:40:37;;;;;;;44.03;20.90;;;4.40;99.90;;;;;;4732013;30;20036;-82
2022/02/01 04:43:05;;;;;;;31.67;17.15;;;4.40;99.90;;;;;;4753047;30;20036;-83
2022/02/01 04:45:31;;;;;;;51.90;21.45;;;4.40;99.90;;;;;;4772950;30;20120;-82
2022/02/01 04:47:57;;;;;;;34.55;18.63;;;4.40;99.90;;;;;;4713887;30;20042;-83
2022/02/01 04:50:28;;;;;;;29.77;16.13;;;4.40;99.90;;;;;;4745970;30;20044;-82
2022/02/01 04:52:55;;;;;;;36.35;14.82;;;4.40;99.90;;;;;;4745840;30;20033;-82
2022/02/01 04:55:23;;;;;;;33.63;15.70;;;4.30;99.90;;;;;;4746025;30;20201;-82
2022/02/01 04:57:56;;;;;;;37.30;15.05;;;4.30;99.90;;;;;;4717808;30;20085;-82
2022/02/01 05:00:29;;;;;;;36.22;16.13;;;4.30;99.90;;;;;;4746069;30;20054;-83
2022/02/01 05:02:58;;;;;;;37.75;16.63;;;4.30;99.90;;;;;;4731151;30;20340;-82
2022/02/01 05:05:29;;;;;;;43.53;16.83;;;4.30;99.90;;;;;;4745606;30;20042;-83
2022/02/01 05:08:04;;;;;;;42.97;16.40;;;4.30;99.90;;;;;;4730992;30;20040;-82
2022/02/01 05:10:32;;;;;;;38.17;15.93;;;4.30;99.90;;;;;;4745279;30;20043;-82
2022/02/01 05:13:20;;;;;;;37.85;17.85;;;4.30;99.90;;;;;;4745456;30;20074;-82
2022/02/01 05:15:45;;;;;;;42.97;16.88;;;4.30;99.90;;;;;;4740800;30;20040;-82
2022/02/01 05:18:16;;;;;;;37.67;15.83;;;4.30;99.90;;;;;;4710270;30;20321;-82
2022/02/01 05:23:11;;;;;;;44.03;16.23;;;4.20;99.90;;;;;;4730657;30;20383;-82
2022/02/01 05:25:37;;;;;;;45.75;17.35;;;4.20;99.90;;;;;;4715979;30;20041;-82
2022/02/01 05:28:03;;;;;;;39.45;17.13;;;4.20;99.90;;;;;;4744662;30;20104;-82
2022/02/01 05:30:29;;;;;;;44.03;15.82;;;4.10;99.90;;;;;;4744941;30;20045;-82
2022/02/01 05:32:55;;;;;;;38.10;16.90;;;4.10;99.90;;;;;;4712999;30;20053;-82
2022/02/01 05:35:21;;;;;;;51.83;18.90;;;4.10;99.90;;;;;;4759017;30;20691;-82
2022/02/01 05:37:47;;;;;;;50.45;18.30;;;4.00;99.90;;;;;;4730328;30;20320;-82
2022/02/01 05:40:22;;;;;;;46.20;17.83;;;4.00;99.90;;;;;;4745849;30;20264;-82
2022/02/01 05:43:01;;;;;;;43.35;18.67;;;4.00;99.90;;;;;;4738977;30;20040;-82
2022/02/01 05:45:28;;;;;;;43.28;16.70;;;3.90;99.90;;;;;;4726961;30;20047;-82
2022/02/01 05:47:54;;;;;;;50.67;16.92;;;3.90;99.90;;;;;;4744273;30;20390;-82
2022/02/01 05:50:21;;;;;;;55.70;18.73;;;3.90;99.90;;;;;;4715464;30;20064;-81
2022/02/01 05:52:47;;;;;;;51.35;18.13;;;3.90;99.90;;;;;;4729757;30;20036;-81
2022/02/01 05:55:14;;;;;;;47.00;16.25;;;3.80;99.90;;;;;;4744472;30;20165;-81
2022/02/01 05:57:40;;;;;;;50.50;17.65;;;3.80;99.90;;;;;;4730074;30;20037;-81
2022/02/01 06:00:07;;;;;;;55.88;17.92;;;3.70;99.90;;;;;;4700922;30;20041;-80
2022/02/01 06:02:39;;;;;;;60.20;18.83;;;3.70;99.90;;;;;;4730271;30;20352;-81
2022/02/01 06:05:05;;;;;;;44.93;16.50;;;3.60;99.90;;;;;;4715294;30;20116;-81
2022/02/01 06:07:31;;;;;;;38.47;15.90;;;3.60;99.90;;;;;;4747068;30;20036;-81
2022/02/01 06:09:57;;;;;;;44.10;16.42;;;3.60;99.90;;;;;;4729249;30;20052;-80
2022/02/01 06:12:23;;;;;;;46.80;15.25;;;3.60;99.90;;;;;;4735590;30;20037;-80
2022/02/01 06:14:48;;;;;;;43.35;14.73;;;3.60;99.90;;;;;;4715003;30;20036;-81
2022/02/01 06:17:14;;;;;;;43.03;14.57;;;3.60;99.90;;;;;;4714735;30;20303;-81
2022/02/01 06:19:40;;;;;;;43.50;15.50;;;3.60;99.90;;;;;;4715027;30;20232;-81
2022/02/01 06:22:06;;;;;;;43.35;14.13;;;3.60;99.90;;;;;;4715073;30;20091;-81
2022/02/01 06:24:33;;;;;;;36.90;13.60;;;3.60;99.90;;;;;;4737202;30;20040;-81
2022/02/01 06:26:59;;;;;;;;;;;3.60;99.90;;;;;;4715283;30;20044;-80
2022/02/01 06:29:26;;;;;;;51.30;12.70;;;3.60;99.90;;;;;;4743848;30;19914;-81
2022/02/01 06:31:52;;;;;;;38.28;13.25;;;3.70;99.90;;;;;;4729104;30;20040;-81
2022/02/01 06:34:17;;;;;;;38.80;12.15;;;3.70;99.90;;;;;;4737761;30;20279;-81
2022/02/01 06:36:43;;;;;;;40.47;12.32;;;3.70;99.80;;;;;;4714050;30;20039;-80
2022/02/01 06:39:09;;;;;;;49.25;14.02;;;3.70;99.80;;;;;;4729099;30;20123;-81
2022/02/01 06:41:36;;;;;;;39.50;13.17;;;3.80;99.70;;;;;;4714608;30;20070;-80
2022/02/01 06:44:04;;;;;;;33.47;12.20;;;3.70;99.50;;;;;;4743474;30;20059;-81
2022/02/01 06:46:30;;;;;;;46.83;13.52;;;3.80;99.50;;;;;;4728460;30;20068;-81
2022/02/01 06:48:56;;;;;;;41.93;13.07;;;3.70;99.50;;;;;;4714288;30;20046;-81
2022/02/01 06:51:23;;;;;;;43.35;13.50;;;3.70;99.50;;;;;;4728522;30;20287;-81
2022/02/01 06:53:50;;;;;;;40.28;12.35;;;3.80;99.50;;;;;;4711677;30;20040;-82
2022/02/01 06:56:22;;;;;;;43.78;13.68;;;3.80;99.50;;;;;;4720931;30;20261;-80
2022/02/01 06:58:48;;;;;;;47.40;12.30;;;3.90;99.40;;;;;;4732399;30;20111;-81
2022/02/01 07:01:14;;;;;;;37.65;12.70;;;3.90;99.20;;;;;;4724362;30;20029;-80
2022/02/01 07:03:39;;;;;;;39.50;14.02;;;3.90;98.90;;;;;;4739874;30;20082;-81
2022/02/01 07:06:11;;;;;;;37.92;12.70;;;3.90;99.00;;;;;;4695345;30;20337;-81
2022/02/01 07:08:38;;;;;;;37.00;12.27;;;3.90;98.90;;;;;;4737752;30;20104;-81
2022/02/01 07:11:04;;;;;;;41.53;14.32;;;3.90;98.60;;;;;;4734479;30;20419;-82
2022/02/01 07:13:30;;;;;;;43.65;13.30;;;3.90;98.30;;;;;;4711010;30;20075;-81
2022/02/01 07:15:56;;;;;;;33.03;13.82;;;4.00;98.40;;;;;;4722780;30;20040;-81
2022/02/01 07:18:22;;;;;;;46.47;13.55;;;4.00;98.40;;;;;;4711582;30;20041;-81
2022/02/01 07:20:47;;;;;;;43.70;14.57;;;4.10;98.60;;;;;;4693697;30;20279;-81
2022/02/01 07:23:21;;;;;;;38.88;11.60;;;4.50;98.00;;;;;;4741867;30;20033;-81
2022/02/01 07:25:47;;;;;;;44.70;13.02;;;4.70;97.10;;;;;;4725984;30;20040;-81
2022/02/01 07:28:16;;;;;;;44.63;13.30;;;4.70;96.60;;;;;;4721924;30;20328;-81
2022/02/01 07:30:43;;;;;;;37.67;12.88;;;4.60;96.80;;;;;;4725695;30;20056;-81
2022/02/01 07:33:09;;;;;;;30.90;12.10;;;4.60;97.00;;;;;;4720008;30;20287;-81
2022/02/01 07:35:39;;;;;;;36.42;11.77;;;4.70;97.10;;;;;;4723463;30;20096;-80
2022/02/01 07:38:07;;;;;;;37.53;11.93;;;4.60;96.30;;;;;;4733164;30;20162;-81
2022/02/01 07:40:34;;;;;;;30.00;10.68;;;4.70;96.60;;;;;;4725901;30;20472;-81
2022/02/01 07:43:00;;;;;;;33.05;11.23;;;4.80;95.90;;;;;;4727348;30;20036;-81
2022/02/01 07:45:29;;;;;;;35.88;10.90;;;4.80;95.80;;;;;;4737268;30;20037;-82
2022/02/01 07:48:01;;;;;;;32.03;10.48;;;4.90;95.10;;;;;;4723335;30;20049;-83
2022/02/01 07:50:27;;;;;;;30.65;10.50;;;4.90;94.90;;;;;;4752581;30;20063;-82
2022/02/01 07:52:53;;;;;;;38.13;10.90;;;5.00;94.50;;;;;;4739468;30;20056;-81
2022/02/01 07:55:19;;;;;;;38.75;11.43;;;5.10;94.10;;;;;;4733265;30;20228;-81
2022/02/01 07:57:45;;;;;;;35.13;9.82;;;5.20;93.90;;;;;;4712023;30;20024;-81
2022/02/01 08:00:11;;;;;;;39.50;10.02;;;5.30;93.10;;;;;;4737444;30;20032;-80
2022/02/01 08:02:37;;;;;;;32.85;10.02;;;5.40;92.60;;;;;;4738697;30;20053;-80
2022/02/01 08:05:04;;;;;;;36.10;9.35;;;5.40;92.60;;;;;;4725593;30;20071;-81
2022/02/01 08:07:31;;;;;;;30.33;8.77;;;5.50;91.90;;;;;;4752180;30;20040;-80
2022/02/01 08:10:00;;;;;;;40.92;9.30;;;5.50;91.50;;;;;;4736652;30;20052;-81
2022/02/01 08:20:42;;;;;;;32.50;8.88;;;5.60;91.10;;;;;;4744998;30;20052;-81
2022/02/01 08:23:08;;;;;;;23.85;8.45;;;5.50;90.80;;;;;;4742308;30;20109;-81
2022/02/01 08:25:34;;;;;;;28.73;7.85;;;5.50;91.40;;;;;;4744496;30;20275;-81
2022/02/01 08:28:01;;;;;;;43.80;10.27;;;5.40;90.40;;;;;;4728172;30;20070;-80
2022/02/01 08:30:28;;;;;;;;;;;5.40;91.20;;;;;;4744561;30;20147;-81
2022/02/01 08:32:54;;;;;;;38.47;9.52;;;5.40;91.10;;;;;;4744638;30;19914;-80
2022/02/01 08:35:20;;;;;;;34.35;10.27;;;5.40;91.30;;;;;;4744278;30;20040;-80
2022/02/01 08:37:46;;;;;;;26.48;8.80;;;5.30;91.40;;;;;;4728938;30;20037;-80
2022/02/01 08:40:16;;;;;;;32.72;8.82;;;5.30;91.30;;;;;;4714684;30;20041;-80
2022/02/01 08:42:49;;;;;;;37.78;9.65;;;5.20;90.80;;;;;;4729492;30;20040;-81
2022/02/01 08:45:25;;;;;;;33.53;8.93;;;5.30;91.60;;;;;;4729046;30;20048;-81
2022/02/01 08:47:54;;;;;;;39.65;9.02;;;5.30;91.10;;;;;;4712690;30;20340;-80
2022/02/01 08:50:25;;;;;;;36.03;9.52;;;5.30;91.20;;;;;;4728961;30;20048;-80
2022/02/01 08:52:53;;;;;;;34.55;9.65;;;5.30;91.10;;;;;;4729461;30;20098;-80
2022/02/01 08:56:00;;;;;;;35.50;8.38;;;5.40;91.10;;;;;;4713985;30;20359;-80
2022/02/01 08:58:06;;;;;;;;;;;5.40;90.60;;;;;;4729771;30;20071;-80
2022/02/01 09:00:33;;;;;;;27.35;8.85;;;5.50;90.90;;;;;;4727497;30;19914;-81
2022/02/01 09:03:03;;;;;;;27.95;7.63;;;5.50;90.60;;;;;;4730292;30;20282;-81
2022/02/01 09:05:30;;;;;;;37.10;8.50;;;5.50;89.80;;;;;;4715992;30;20217;-81
2022/02/01 09:08:04;;;;;;;34.88;7.53;;;5.50;90.40;;;;;;4744671;30;20111;-82
2022/02/01 09:10:32;;;;;;;30.38;7.88;;;5.50;90.30;;;;;;4715988;30;20067;-81
2022/02/01 09:12:59;;;;;;;33.70;9.63;;;5.60;90.40;;;;;;4715412;30;20327;-81
2022/02/01 09:15:28;;;;;;;30.00;8.60;;;5.60;90.30;;;;;;4745270;30;20047;-81
2022/02/01 09:17:58;;;;;;;29.60;7.13;;;5.60;90.30;;;;;;4743957;30;20032;-81
2022/02/01 09:20:25;;;;;;;26.08;8.75;;;5.60;90.10;;;;;;4729572;30;20217;-81
2022/02/01 09:22:51;;;;;;;40.78;9.18;;;5.50;89.30;;;;;;4714717;30;20048;-82
2022/02/01 09:25:18;;;;;;;29.40;7.72;;;5.60;89.70;;;;;;4700628;30;20370;-82
2022/02/01 09:27:48;;;;;;;28.85;7.85;;;5.60;90.10;;;;;;4730125;30;20210;-82
2022/02/01 09:30:18;;;;;;;29.77;8.85;;;5.70;90.10;;;;;;4729675;30;20116;-82
2022/02/01 09:32:44;;;;;;;24.23;8.43;;;5.80;89.10;;;;;;4744171;30;20328;-82
2022/02/01 09:35:10;;;;;;;31.67;9.68;;;5.90;89.20;;;;;;4744255;30;20037;-81
2022/02/01 09:37:36;;;;;;;34.25;8.10;;;5.90;89.00;;;;;;4715494;30;20080;-82
2022/02/01 09:40:03;;;;;;;32.67;9.18;;;5.90;89.00;;;;;;4729603;30;20210;-81
2022/02/01 09:42:29;;;;;;;;;;;5.90;89.10;;;;;;4729891;30;20063;-82
2022/02/01 09:44:57;;;;;;;25.13;7.67;;;6.00;89.00;;;;;;4745196;30;19919;-82
2022/02/01 09:47:37;;;;;;;27.63;8.18;;;6.10;88.80;;;;;;4739756;30;20064;-82
2022/02/01 09:50:05;;;;;;;35.85;8.85;;;6.30;88.60;;;;;;4729396;30;20054;-80
2022/02/01 09:52:32;;;;;;;28.45;7.22;;;6.40;87.90;;;;;;4729068;30;20040;-81
2022/02/01 09:55:01;;;;;;;33.00;8.43;;;6.30;86.80;;;;;;4714636;30;20047;-81
2022/02/01 09:57:27;;;;;;;31.75;9.10;;;6.30;87.30;;;;;;4729682;30;20378;-82
2022/02/01 09:59:55;;;;;;;28.17;7.90;;;6.30;88.40;;;;;;4712854;30;20048;-82
2022/02/01 10:02:23;;;;;;;29.73;7.68;;;6.30;86.00;;;;;;4743623;30;20040;-82
2022/02/01 10:05:00;;;;;;;26.70;8.00;;;6.20;86.50;;;;;;4743638;30;20036;-82
2022/02/01 10:07:26;;;;;;;24.98;8.65;;;6.20;87.80;;;;;;4743555;30;20055;-82
2022/02/01 10:09:57;;;;;;;29.75;7.38;;;6.30;87.50;;;;;;4714637;30;20123;-82
2022/02/01 10:12:26;;;;;;;29.27;8.07;;;6.40;87.30;;;;;;4740743;30;20036;-82
2022/02/01 10:14:56;;;;;;;31.30;8.30;;;6.40;86.40;;;;;;4743448;30;20033;-82
2022/02/01 10:17:42;;;;;;;32.90;8.32;;;6.30;86.70;;;;;;4727960;30;20145;-82
2022/02/01 10:20:10;;;;;;;20.90;7.03;;;6.30;86.60;;;;;;4743305;30;20040;-82
2022/02/01 10:22:36;;;;;;;29.20;7.85;;;6.40;86.70;;;;;;4743496;30;20049;-82
2022/02/01 10:25:18;;;;;;;23.48;7.35;;;6.50;87.30;;;;;;4757895;30;20039;-82
2022/02/01 10:27:57;;;;;;;29.13;7.78;;;6.50;86.10;;;;;;4753330;30;20044;-82
2022/02/01 10:30:34;;;;;;;25.48;7.22;;;6.60;86.70;;;;;;4714529;30;20108;-82
2022/02/01 10:35:58;;;;;;;19.08;6.93;;;6.90;85.50;;;;;;4743216;30;20279;-82
2022/02/01 10:38:32;;;;;;;22.50;6.72;;;6.80;84.80;;;;;;4737470;30;20067;-82
2022/02/01 10:40:58;;;;;;;25.00;7.78;;;6.80;85.20;;;;;;4758999;30;20036;-82
2022/02/01 10:43:26;;;;;;;19.63;6.60;;;6.80;86.20;;;;;;4714003;30;20040;-82
2022/02/01 10:45:59;;;;;;;26.60;7.38;;;6.90;84.80;;;;;;4742913;30;20076;-82
2022/02/01 10:48:27;;;;;;;18.23;7.22;;;6.90;84.90;;;;;;4742713;30;20033;-82
2022/02/01 10:51:07;;;;;;;23.13;7.30;;;6.90;83.90;;;;;;4742939;30;20119;-82
2022/02/01 10:53:34;;;;;;;17.58;7.13;;;7.10;83.70;;;;;;4718115;30;20113;-81
2022/02/01 10:56:02;;;;;;;17.23;7.13;;;7.10;83.40;;;;;;4739845;30;20198;-82
2022/02/01 10:58:28;;;;;;;17.98;6.07;;;7.40;83.10;;;;;;4742974;30;20358;-81
2022/02/01 11:00:54;;;;;;;17.17;6.20;;;7.40;80.10;;;;;;4728230;30;20043;-82
2022/02/01 11:03:22;;;;;;;19.50;6.70;;;7.40;81.30;;;;;;4713927;30;20044;-83
2022/02/01 11:05:51;;;;;;;12.35;5.72;;;7.50;80.60;;;;;;4728765;30;20057;-82
2022/02/01 11:08:22;;;;;;;17.85;6.15;;;7.50;79.50;;;;;;4728941;30;20068;-82
2022/02/01 11:10:54;;;;;;;17.45;5.78;;;7.50;79.20;;;;;;4743071;30;20047;-82
2022/02/01 11:13:20;;;;;;;13.80;5.68;;;7.50;78.60;;;;;;4742982;30;20051;-82
2022/02/01 11:15:58;;;;;;;12.90;5.22;;;7.50;79.70;;;;;;4700477;30;20108;-82
2022/02/01 11:18:26;;;;;;;12.98;5.47;;;7.50;79.80;;;;;;4728971;30;20068;-82
2022/02/01 11:20:53;;;;;;;15.98;5.43;;;7.50;79.60;;;;;;4729061;30;20045;-82
2022/02/01 11:23:21;;;;;;;;;;;7.50;79.40;;;;;;4743240;30;20120;-82
2022/02/01 11:25:54;;;;;;;15.73;6.05;;;7.40;80.80;;;;;;4742934;30;19952;-82
2022/02/01 11:28:38;;;;;;;13.25;6.07;;;7.50;80.10;;;;;;4728471;30;20044;-82
2022/02/01 11:31:05;;;;;;;12.27;5.60;;;7.50;80.00;;;;;;4730105;30;20275;-81
2022/02/01 11:33:42;;;;;;;28.45;6.35;;;7.40;79.80;;;;;;4743581;30;20041;-82
2022/02/01 11:36:13;;;;;;;18.48;6.15;;;7.40;78.10;;;;;;4757846;30;20332;-81
2022/02/01 11:38:55;;;;;;;9.98;5.35;;;7.40;78.80;;;;;;4743922;30;20144;-82
2022/02/01 11:41:36;;;;;;;11.75;5.07;;;7.40;79.60;;;;;;4729026;30;20040;-83
2022/02/01 11:44:14;;;;;;;13.90;5.45;;;7.50;79.10;;;;;;4742607;30;20229;-81
2022/02/01 11:47:00;;;;;;;16.23;5.88;;;7.50;78.10;;;;;;4743467;30;20056;-81
2022/02/01 11:49:26;;;;;;;9.82;4.75;;;7.50;77.40;;;;;;4746367;30;20098;-82
2022/02/01 11:52:11;;;;;;;10.45;4.60;;;7.50;77.30;;;;;;4717153;30;20044;-83
2022/02/01 11:54:39;;;;;;;11.95;4.65;;;7.50;76.60;;;;;;4731420;30;20064;-81
2022/02/01 11:57:31;;;;;;;13.18;5.18;;;7.50;76.10;;;;;;4716690;30;20274;-83
2022/02/01 12:00:16;;;;;;;9.80;4.32;;;7.50;76.80;;;;;;4727538;30;20076;-81
2022/02/01 12:02:55;;;;;;;11.35;4.00;;;7.50;74.80;;;;;;4727784;30;20249;-82
2022/02/01 12:05:31;;;;;;;9.27;3.60;;;7.50;74.30;;;;;;4711445;30;20057;-82
2022/02/01 12:08:13;;;;;;;10.53;3.70;;;7.60;74.30;;;;;;4712440;30;20048;-82
2022/02/01 12:10:47;;;;;;;9.18;3.15;;;7.70;74.50;;;;;;4727744;30;20299;-82
2022/02/01 12:13:20;;;;;;;14.23;3.55;;;7.80;72.50;;;;;;4727391;30;20053;-82
2022/02/01 12:15:47;;;;;;;13.70;3.80;;;7.80;72.60;;;;;;4711614;30;20033;-82
2022/02/01 12:18:51;;;;;;;6.75;3.08;;;7.70;72.00;;;;;;4670011;30;20129;-82
2022/02/01 12:21:28;;;;;;;11.05;3.17;;;7.70;72.60;;;;;;4712933;30;20064;-82
2022/02/01 12:23:59;;;;;;;12.05;3.90;;;7.80;72.80;;;;;;4727288;30;20053;-82
2022/02/01 12:26:37;;;;;;;6.90;3.25;;;7.90;72.80;;;;;;4698769;30;20063;-83
2022/02/01 12:29:06;;;;;;;10.18;2.42;;;8.00;72.70;;;;;;4727089;30;20094;-82
2022/02/01 12:31:34;;;;;;;7.05;3.35;;;8.00;71.70;;;;;;4712685;30;20707;-83
2022/02/01 12:34:02;;;;;;;7.78;3.20;;;8.00;72.40;;;;;;4726943;30;20080;-83
2022/02/01 12:36:37;;;;;;;5.53;2.35;;;8.10;73.00;;;;;;4709321;30;20064;-83
2022/02/01 12:39:03;;;;;;;6.55;2.75;;;8.20;72.70;;;;;;4746418;30;20233;-82
2022/02/01 12:41:40;;;;;;;7.27;3.00;;;8.20;72.40;;;;;;4730621;30;20059;-82
2022/02/01 12:47:01;;;;;;;5.15;2.05;;;8.00;70.60;;;;;;4745007;30;20073;-83
2022/02/01 12:49:38;;;;;;;9.57;2.28;;;7.90;71.60;;;;;;4726863;30;20079;-83
2022/02/01 12:52:28;;;;;;;7.70;2.20;;;7.80;72.30;;;;;;4698519;30;20260;-82
2022/02/01 12:55:01;;;;;;;4.32;2.25;;;7.90;73.30;;;;;;4660641;30;20389;-83
2022/02/01 12:57:28;;;;;;;3.67;1.88;;;8.00;73.60;;;;;;4660730;30;20046;-83
2022/02/01 12:59:58;;;;;;;3.22;1.83;;;8.10;72.70;;;;;;4660892;30;20046;-83
2022/02/01 13:02:32;;;;;;;4.72;2.35;;;8.20;72.80;;;;;;4660824;30;20146;-83
2022/02/01 13:05:03;;;;;;;6.30;2.88;;;8.20;72.80;;;;;;4674579;30;20042;-82
2022/02/01 13:16:17;;;;;;;6.18;2.13;;;8.20;73.20;;;;;;4674693;30;20343;-83
2022/02/01 13:21:21;;;;;;;3.78;2.00;;;8.20;73.70;;;;;;4648159;30;20041;-82
2022/02/01 13:23:54;;;;;;;7.07;2.40;;;8.10;73.30;;;;;;4674529;30;20042;-83
2022/02/01 13:26:29;;;;;;;2.65;1.98;;;8.00;73.80;;;;;;4677448;30;20080;-83
2022/02/01 13:29:10;;;;;;;4.20;2.33;;;7.90;73.60;;;;;;4677165;30;20038;-83
2022/02/01 13:31:37;;;;;;;6.28;2.30;;;7.90;74.40;;;;;;4703719;30;20056;-82
2022/02/01 13:34:05;;;;;;;3.22;2.08;;;7.90;74.40;;;;;;4711781;30;20040;-84
2022/02/01 13:36:56;;;;;;;4.47;2.17;;;7.90;74.60;;;;;;4711956;30;20048;-83
2022/02/01 13:39:23;;;;;;;5.55;2.50;;;7.80;75.80;;;;;;4712003;30;20049;-83
2022/02/01 13:41:56;;;;;;;;;;;7.80;75.90;;;;;;4726794;30;20063;-83
2022/02/01 13:44:21;;;;;;;2.63;1.67;;;7.80;75.40;;;;;;4711576;30;20161;-83
2022/02/01 13:47:00;;;;;;;4.18;2.60;;;7.70;75.30;;;;;;4710676;30;20073;-82
2022/02/01 13:49:26;;;;;;;3.15;1.95;;;7.80;75.70;;;;;;4715729;30;20115;-83
2022/02/01 13:51:53;;;;;;;3.90;2.17;;;7.80;75.60;;;;;;4714958;30;20044;-83
2022/02/01 13:54:20;;;;;;;6.82;2.97;;;7.80;76.00;;;;;;4711534;30;20033;-83
2022/02/01 13:56:48;;;;;;;5.25;2.15;;;7.80;76.20;;;;;;4742589;30;20040;-83
2022/02/01 13:59:19;;;;;;;5.47;2.40;;;7.80;76.30;;;;;;4714323;30;20076;-83
2022/02/01 14:01:46;;;;;;;4.75;2.45;;;7.80;75.70;;;;;;4752945;30;20033;-83
2022/02/01 14:04:28;;;;;;;3.90;2.13;;;7.80;76.30;;;;;;4729130;30;20047;-83
2022/02/01 14:07:29;;;;;;;5.18;1.95;;;7.70;75.60;;;;;;4719508;30;20040;-83
2022/02/01 14:28:55;;;;;;;4.60;2.20;;;7.50;81.20;;;;;;4730371;30;20370;-83
2022/02/01 14:34:13;;;;;;;6.93;2.17;;;7.30;80.50;;;;;;4743968;30;20044;-82
2022/02/01 14:36:41;;;;;;;4.93;2.20;;;7.40;81.80;;;;;;4715558;30;20335;-82
2022/02/01 14:46:44;;;;;;;5.22;1.67;;;7.50;81.10;;;;;;4722801;30;20064;-82
2022/02/01 14:49:09;;;;;;;3.63;1.83;;;7.40;81.30;;;;;;4741348;30;20063;-83
2022/02/01 14:51:36;;;;;;;4.07;1.63;;;7.30;81.00;;;;;;4735873;30;20045;-83
2022/02/01 14:54:04;;;;;;;4.57;1.75;;;7.20;80.30;;;;;;4721824;30;20348;-83
2022/02/01 14:56:34;;;;;;;5.93;1.92;;;7.10;81.20;;;;;;4724012;30;20041;-83
2022/02/01 15:07:16;;;;;;;3.58;1.63;;;6.80;81.90;;;;;;4738571;30;20051;-84
2022/02/01 15:15:02;;;;;;;7.10;1.75;;;6.70;81.50;;;;;;4733696;30;20091;-83
2022/02/01 15:17:28;;;;;;;;;;;6.60;80.10;;;;;;4716837;30;20116;-83
2022/02/01 15:19:57;;;;;;;5.47;1.70;;;6.60;80.20;;;;;;4724903;30;19922;-82
2022/02/01 15:22:23;;;;;;;8.18;2.05;;;6.60;80.20;;;;;;4738685;30;20424;-83
2022/02/01 15:24:48;;;;;;;4.78;1.70;;;6.60;80.40;;;;;;4726020;30;20076;-83
2022/02/01 15:27:18;;;;;;;9.23;2.50;;;6.60;80.30;;;;;;4722517;30;20048;-82
2022/02/01 15:29:45;;;;;;;8.52;2.58;;;6.60;80.70;;;;;;4735947;30;20104;-84
2022/02/01 15:32:11;;;;;;;;;;;6.60;79.90;;;;;;4723644;30;20056;-83
2022/02/01 15:34:38;;;;;;;12.97;2.73;;;6.60;80.20;;;;;;4730352;30;19918;-83
2022/02/01 15:37:06;;;;;;;7.38;2.15;;;6.50;80.70;;;;;;4713688;30;20229;-82
2022/02/01 15:58:43;;;;;;;13.68;2.63;;;6.10;81.90;;;;;;4673155;30;20042;-82
2022/02/01 16:01:15;;;;;;;9.25;2.38;;;6.00;82.30;;;;;;4681465;30;20056;-83
2022/02/01 16:03:46;;;;;;;13.75;3.03;;;5.90;83.10;;;;;;4690896;30;20097;-83
2022/02/01 16:06:12;;;;;;;12.20;2.90;;;5.80;83.90;;;;;;4680990;30;20076;-83
2022/02/01 16:08:40;;;;;;;16.15;2.85;;;5.70;84.60;;;;;;4664786;30;20253;-83
2022/02/01 16:11:09;;;;;;;14.98;2.80;;;5.60;85.60;;;;;;4688263;30;20285;-83
2022/02/01 16:13:41;;;;;;;10.73;2.45;;;5.60;86.30;;;;;;4678952;30;20057;-82
2022/02/01 16:16:10;;;;;;;14.68;3.08;;;5.50;87.10;;;;;;4684186;30;20044;-83
2022/02/01 16:18:43;;;;;;;4.53;1.85;;;5.40;88.00;;;;;;4710021;30;20056;-83
2022/02/01 16:21:11;;;;;;;9.40;2.40;;;5.40;87.90;;;;;;4745133;30;20112;-82
2022/02/01 16:23:38;;;;;;;12.68;3.03;;;5.40;88.20;;;;;;4713359;30;20029;-84
2022/02/01 16:26:04;;;;;;;8.00;2.70;;;5.30;88.80;;;;;;4745054;30;20060;-84
2022/02/01 16:28:30;;;;;;;7.40;2.60;;;5.30;88.80;;;;;;4741509;30;20045;-83
2022/02/01 16:30:56;;;;;;;3.40;1.80;;;5.30;88.90;;;;;;4724431;30;20049;-83
2022/02/01 16:33:22;;;;;;;8.65;2.25;;;5.20;89.20;;;;;;4729939;30;20075;-82
2022/02/01 16:35:48;;;;;;;17.73;3.03;;;5.20;89.30;;;;;;4711018;30;20045;-82
2022/02/01 16:38:14;;;;;;;14.88;2.97;;;5.20;89.60;;;;;;4740430;30;20105;-82
2022/02/01 16:40:42;;;;;;;7.60;2.83;;;5.30;89.70;;;;;;4729664;30;20055;-82
2022/02/01 16:43:12;;;;;;;10.88;2.83;;;5.20;89.70;;;;;;4729471;30;20061;-82
2022/02/01 16:45:39;;;;;;;10.63;3.03;;;5.20;89.90;;;;;;4720759;30;20049;-83
2022/02/01 16:48:07;;;;;;;12.68;2.13;;;5.20;89.80;;;;;;4744209;30;20036;-82
2022/02/01 16:50:35;;;;;;;13.20;2.25;;;5.20;89.90;;;;;;4723525;30;20340;-83
2022/02/01 16:56:06;;;;;;;13.88;2.80;;;5.20;90.20;;;;;;4737020;30;20257;-82
2022/02/01 16:58:38;;;;;;;10.25;3.20;;;5.20;90.10;;;;;;4731837;30;20041;-83
2022/02/01 17:01:05;;;;;;;13.68;2.53;;;5.20;90.30;;;;;;4728284;30;20245;-82
2022/02/01 17:03:33;;;;;;;12.95;2.95;;;5.20;90.40;;;;;;4733784;30;20283;-83
2022/02/01 17:05:58;;;;;;;;;;;5.20;90.50;;;;;;4745697;30;20112;-83
2022/02/01 17:08:25;;;;;;;10.40;1.83;;;5.20;90.30;;;;;;4748386;30;19923;-83
2022/02/01 17:10:56;;;;;;;11.90;3.30;;;5.10;90.20;;;;;;4749597;30;20048;-83
2022/02/01 17:21:27;;;;;;;6.35;1.50;;;5.20;90.30;;;;;;4740701;30;20385;-83
2022/02/01 17:23:54;;;;;;;5.90;1.80;;;5.20;90.20;;;;;;4709705;30;20061;-82
2022/02/01 17:26:20;;;;;;;9.98;2.97;;;5.20;90.00;;;;;;4703425;30;20033;-83
2022/02/01 17:28:47;;;;;;;5.35;1.80;;;5.30;90.10;;;;;;4749732;30;20265;-83
2022/02/01 17:31:13;;;;;;;;;;;5.20;90.10;;;;;;4748406;30;20051;-82
2022/02/01 17:33:40;;;;;;;5.97;1.80;;;5.20;90.20;;;;;;4739535;30;19911;-81
2022/02/01 17:36:08;;;;;;;5.65;2.55;;;5.20;90.30;;;;;;4738913;30;20045;-82
2022/02/01 17:38:35;;;;;;;13.45;1.92;;;5.20;90.20;;;;;;4745154;30;20047;-83
2022/02/01 17:41:01;;;;;;;6.63;1.88;;;5.20;90.50;;;;;;4730663;30;20024;-82
2022/02/01 17:43:27;;;;;;;7.35;1.67;;;5.20;90.60;;;;;;4745154;30;20040;-83
2022/02/01 17:45:53;;;;;;;6.00;2.40;;;5.20;90.60;;;;;;4715452;30;20117;-82
2022/02/01 17:48:23;;;;;;;11.63;2.80;;;5.20;90.40;;;;;;4736222;30;20040;-83
2022/02/01 17:56:16;;;;;;;7.35;2.30;;;5.20;90.20;;;;;;4744173;30;20033;-83
2022/02/01 17:58:46;;;;;;;17.05;2.72;;;5.30;90.10;;;;;;4759076;30;20048;-83
2022/02/01 18:01:12;;;;;;;10.75;2.90;;;5.30;90.00;;;;;;4728071;30;20051;-83
2022/02/01 18:03:38;;;;;;;18.42;2.35;;;5.30;89.50;;;;;;4734755;30;20048;-83
2022/02/01 18:06:04;;;;;;;8.20;1.98;;;5.30;89.50;;;;;;4745984;30;20129;-83
2022/02/01 18:08:31;;;;;;;8.18;2.20;;;5.30;88.70;;;;;;4735466;30;20033;-83
2022/02/01 18:10:58;;;;;;;5.72;1.63;;;5.40;88.40;;;;;;4731608;30;20044;-83
2022/02/01 18:13:59;;;;;;;6.95;1.65;;;5.40;87.50;;;;;;4729365;30;20041;-83
2022/02/01 18:16:15;;;;;;;5.65;1.67;;;5.40;87.00;;;;;;4740426;30;20040;-83
2022/02/01 18:18:42;;;;;;;8.75;2.17;;;5.40;86.60;;;;;;4737799;30;20069;-83
2022/02/01 18:21:12;;;;;;;6.60;1.60;;;5.50;86.80;;;;;;4707661;30;20045;-83
2022/02/01 18:23:38;;;;;;;9.30;1.75;;;5.50;85.10;;;;;;4738137;30;20608;-83
2022/02/01 18:26:05;;;;;;;4.95;1.58;;;5.50;85.00;;;;;;4739248;30;20300;-83
2022/02/01 18:28:33;;;;;;;5.57;1.85;;;5.60;83.70;;;;;;4741932;30;20051;-81
2022/02/01 18:31:00;;;;;;;2.13;0.98;;;5.60;83.10;;;;;;4724628;30;20248;-81
2022/02/01 18:33:33;;;;;;;2.80;1.13;;;5.60;83.50;;;;;;4731284;30;20040;-82
2022/02/01 18:36:02;;;;;;;6.45;1.58;;;5.60;83.00;;;;;;4723248;30;20053;-82
2022/02/01 18:38:30;;;;;;;7.90;1.77;;;5.70;82.50;;;;;;4727586;30;20028;-81